sensor_id;sensor_type;location;lat;lon;timestamp;P1;durP1;ratioP1;P2;durP2;ratioP2
3849;SDS011;1940;51.052;13.678;2023-06-26T00:00:17;9.57;;;5.60;;
3849;SDS011;1940;51.052;13.678;2023-06-26T00:02:43;7.73;;;5.83;;
3849;SDS011;1940;51.052;13.678;2023-06-26T00:05:08;9.33;;;6.20;;
3849;SDS011;1940;51.052;13.678;2023-06-26T00:07:34;8.80;;;6.10;;
3849;SDS011;1940;51.052;13.678;2023-06-26T00:10:00;8.50;;;6.00;;
3849;SDS011;1940;51.052;13.678;2023-06-26T00:12:26;11.73;;;6.47;;
3849;SDS011;1940;51.052;13.678;2023-06-26T00:14:52;10.83;;;6.30;;
3849;SDS011;1940;51.052;13.678;2023-06-26T00:17:17;7.70;;;5.70;;
3849;SDS011;1940;51.052;13.678;2023-06-26T00:19:43;11.57;;;6.63;;
3849;SDS011;1940;51.052;13.678;2023-06-26T00:22:09;8.10;;;5.93;;
3849;SDS011;1940;51.052;13.678;2023-06-26T00:24:35;8.03;;;6.27;;
3849;SDS011;1940;51.052;13.678;2023-06-26T00:27:00;8.30;;;5.80;;
3849;SDS011;1940;51.052;13.678;2023-06-26T00:29:26;10.60;;;6.27;;
3849;SDS011;1940;51.052;13.678;2023-06-26T00:31:51;9.93;;;6.20;;
3849;SDS011;1940;51.052;13.678;2023-06-26T00:34:17;11.30;;;6.33;;
3849;SDS011;1940;51.052;13.678;2023-06-26T00:36:44;10.77;;;5.97;;
3849;SDS011;1940;51.052;13.678;2023-06-26T00:39:10;10.30;;;6.10;;
3849;SDS011;1940;51.052;13.678;2023-06-26T00:41:36;9.60;;;5.87;;
3849;SDS011;1940;51.052;13.678;2023-06-26T00:44:03;9.10;;;6.13;;
3849;SDS011;1940;51.052;13.678;2023-06-26T00:46:31;9.60;;;6.27;;
3849;SDS011;1940;51.052;13.678;2023-06-26T00:49:02;8.27;;;5.63;;
3849;SDS011;1940;51.052;13.678;2023-06-26T00:51:28;12.17;;;6.23;;
3849;SDS011;1940;51.052;13.678;2023-06-26T00:53:55;10.07;;;6.10;;
3849;SDS011;1940;51.052;13.678;2023-06-26T00:56:21;7.80;;;5.70;;
3849;SDS011;1940;51.052;13.678;2023-06-26T00:58:47;7.53;;;5.50;;
3849;SDS011;1940;51.052;13.678;2023-06-26T01:01:13;10.57;;;5.73;;
3849;SDS011;1940;51.052;13.678;2023-06-26T01:03:42;7.93;;;5.67;;
3849;SDS011;1940;51.052;13.678;2023-06-26T01:06:09;10.17;;;5.97;;
3849;SDS011;1940;51.052;13.678;2023-06-26T01:08:38;8.87;;;5.63;;
3849;SDS011;1940;51.052;13.678;2023-06-26T01:11:05;9.43;;;5.93;;
3849;SDS011;1940;51.052;13.678;2023-06-26T01:13:30;9.10;;;5.80;;
3849;SDS011;1940;51.052;13.678;2023-06-26T01:15:57;9.17;;;6.30;;
3849;SDS011;1940;51.052;13.678;2023-06-26T01:18:23;8.50;;;5.80;;
3849;SDS011;1940;51.052;13.678;2023-06-26T01:20:50;10.30;;;6.33;;
3849;SDS011;1940;51.052;13.678;2023-06-26T01:23:21;9.10;;;5.93;;
3849;SDS011;1940;51.052;13.678;2023-06-26T01:28:33;7.97;;;5.43;;
3849;SDS011;1940;51.052;13.678;2023-06-26T01:31:00;8.60;;;6.03;;
3849;SDS011;1940;51.052;13.678;2023-06-26T01:33:27;11.03;;;6.30;;
3849;SDS011;1940;51.052;13.678;2023-06-26T01:35:53;12.63;;;6.00;;
3849;SDS011;1940;51.052;13.678;2023-06-26T01:38:19;12.03;;;5.83;;
3849;SDS011;1940;51.052;13.678;2023-06-26T01:40:48;10.57;;;6.20;;
3849;SDS011;1940;51.052;13.678;2023-06-26T01:43:15;9.67;;;5.40;;
3849;SDS011;1940;51.052;13.678;2023-06-26T01:45:51;8.33;;;5.67;;
3849;SDS011;1940;51.052;13.678;2023-06-26T01:48:20;7.80;;;5.80;;
3849;SDS011;1940;51.052;13.678;2023-06-26T01:50:51;7.87;;;5.53;;
3849;SDS011;1940;51.052;13.678;2023-06-26T01:53:18;8.80;;;5.53;;
3849;SDS011;1940;51.052;13.678;2023-06-26T01:55:50;8.80;;;6.30;;
3849;SDS011;1940;51.052;13.678;2023-06-26T01:58:26;16.20;;;5.93;;
3849;SDS011;1940;51.052;13.678;2023-06-26T02:00:53;9.90;;;6.07;;
3849;SDS011;1940;51.052;13.678;2023-06-26T02:03:19;9.73;;;6.13;;
3849;SDS011;1940;51.052;13.678;2023-06-26T02:05:45;9.57;;;6.37;;
3849;SDS011;1940;51.052;13.678;2023-06-26T02:08:13;10.87;;;7.17;;
3849;SDS011;1940;51.052;13.678;2023-06-26T02:10:39;9.50;;;5.70;;
3849;SDS011;1940;51.052;13.678;2023-06-26T02:13:04;8.60;;;6.20;;
3849;SDS011;1940;51.052;13.678;2023-06-26T02:15:30;8.50;;;5.83;;
3849;SDS011;1940;51.052;13.678;2023-06-26T02:17:55;8.77;;;6.20;;
3849;SDS011;1940;51.052;13.678;2023-06-26T02:20:21;11.63;;;6.30;;
3849;SDS011;1940;51.052;13.678;2023-06-26T02:22:46;9.93;;;6.43;;
3849;SDS011;1940;51.052;13.678;2023-06-26T02:25:12;10.70;;;5.97;;
3849;SDS011;1940;51.052;13.678;2023-06-26T02:27:38;21.60;;;6.47;;
3849;SDS011;1940;51.052;13.678;2023-06-26T02:30:03;15.70;;;6.03;;
3849;SDS011;1940;51.052;13.678;2023-06-26T02:32:29;9.93;;;5.90;;
3849;SDS011;1940;51.052;13.678;2023-06-26T02:34:55;11.90;;;6.10;;
3849;SDS011;1940;51.052;13.678;2023-06-26T02:37:20;10.00;;;6.50;;
3849;SDS011;1940;51.052;13.678;2023-06-26T02:39:46;8.37;;;6.03;;
3849;SDS011;1940;51.052;13.678;2023-06-26T02:42:12;12.20;;;5.83;;
3849;SDS011;1940;51.052;13.678;2023-06-26T02:44:37;10.73;;;6.60;;
3849;SDS011;1940;51.052;13.678;2023-06-26T02:47:03;8.10;;;5.97;;
3849;SDS011;1940;51.052;13.678;2023-06-26T02:49:28;10.10;;;6.30;;
3849;SDS011;1940;51.052;13.678;2023-06-26T02:51:54;8.73;;;6.30;;
3849;SDS011;1940;51.052;13.678;2023-06-26T02:54:19;9.77;;;6.23;;
3849;SDS011;1940;51.052;13.678;2023-06-26T02:56:45;10.30;;;6.43;;
3849;SDS011;1940;51.052;13.678;2023-06-26T02:59:10;10.13;;;6.40;;
3849;SDS011;1940;51.052;13.678;2023-06-26T03:01:36;9.63;;;6.13;;
3849;SDS011;1940;51.052;13.678;2023-06-26T03:04:02;11.00;;;6.20;;
3849;SDS011;1940;51.052;13.678;2023-06-26T03:06:27;8.50;;;6.00;;
3849;SDS011;1940;51.052;13.678;2023-06-26T03:08:53;11.00;;;6.17;;
3849;SDS011;1940;51.052;13.678;2023-06-26T03:11:19;11.07;;;7.03;;
3849;SDS011;1940;51.052;13.678;2023-06-26T03:13:44;7.27;;;5.60;;
3849;SDS011;1940;51.052;13.678;2023-06-26T03:16:10;10.90;;;5.93;;
3849;SDS011;1940;51.052;13.678;2023-06-26T03:18:36;7.60;;;5.63;;
3849;SDS011;1940;51.052;13.678;2023-06-26T03:21:01;8.13;;;5.90;;
3849;SDS011;1940;51.052;13.678;2023-06-26T03:23:27;9.30;;;5.83;;
3849;SDS011;1940;51.052;13.678;2023-06-26T03:25:53;8.57;;;5.50;;
3849;SDS011;1940;51.052;13.678;2023-06-26T03:28:18;7.70;;;5.03;;
3849;SDS011;1940;51.052;13.678;2023-06-26T03:30:44;10.80;;;5.57;;
3849;SDS011;1940;51.052;13.678;2023-06-26T03:33:09;7.50;;;5.40;;
3849;SDS011;1940;51.052;13.678;2023-06-26T03:35:35;9.57;;;5.17;;
3849;SDS011;1940;51.052;13.678;2023-06-26T03:38:01;8.60;;;5.73;;
3849;SDS011;1940;51.052;13.678;2023-06-26T03:40:29;6.57;;;4.90;;
3849;SDS011;1940;51.052;13.678;2023-06-26T03:42:55;7.47;;;5.13;;
3849;SDS011;1940;51.052;13.678;2023-06-26T03:45:20;6.33;;;5.40;;
3849;SDS011;1940;51.052;13.678;2023-06-26T03:47:46;8.30;;;5.80;;
3849;SDS011;1940;51.052;13.678;2023-06-26T03:50:14;7.97;;;5.73;;
3849;SDS011;1940;51.052;13.678;2023-06-26T03:52:42;7.73;;;5.50;;
3849;SDS011;1940;51.052;13.678;2023-06-26T03:55:08;11.13;;;5.60;;
3849;SDS011;1940;51.052;13.678;2023-06-26T03:57:33;10.43;;;6.00;;
3849;SDS011;1940;51.052;13.678;2023-06-26T03:59:59;7.00;;;5.27;;
3849;SDS011;1940;51.052;13.678;2023-06-26T04:02:24;13.53;;;5.20;;
3849;SDS011;1940;51.052;13.678;2023-06-26T04:04:50;9.23;;;5.60;;
3849;SDS011;1940;51.052;13.678;2023-06-26T04:07:17;6.60;;;5.10;;
3849;SDS011;1940;51.052;13.678;2023-06-26T04:09:43;6.83;;;5.00;;
3849;SDS011;1940;51.052;13.678;2023-06-26T04:12:08;7.20;;;5.03;;
3849;SDS011;1940;51.052;13.678;2023-06-26T04:14:35;7.43;;;4.83;;
3849;SDS011;1940;51.052;13.678;2023-06-26T04:17:00;8.23;;;5.23;;
3849;SDS011;1940;51.052;13.678;2023-06-26T04:19:28;12.90;;;5.30;;
3849;SDS011;1940;51.052;13.678;2023-06-26T04:21:54;5.93;;;5.13;;
3849;SDS011;1940;51.052;13.678;2023-06-26T04:24:19;11.50;;;5.20;;
3849;SDS011;1940;51.052;13.678;2023-06-26T04:26:45;6.70;;;4.70;;
3849;SDS011;1940;51.052;13.678;2023-06-26T04:29:10;5.80;;;4.90;;
3849;SDS011;1940;51.052;13.678;2023-06-26T04:31:36;8.00;;;5.70;;
3849;SDS011;1940;51.052;13.678;2023-06-26T04:34:01;6.37;;;5.10;;
3849;SDS011;1940;51.052;13.678;2023-06-26T04:36:27;6.80;;;4.90;;
3849;SDS011;1940;51.052;13.678;2023-06-26T04:38:56;8.93;;;5.33;;
3849;SDS011;1940;51.052;13.678;2023-06-26T04:41:22;6.63;;;5.50;;
3849;SDS011;1940;51.052;13.678;2023-06-26T04:43:47;7.07;;;5.00;;
3849;SDS011;1940;51.052;13.678;2023-06-26T04:46:13;8.10;;;5.10;;
3849;SDS011;1940;51.052;13.678;2023-06-26T04:48:38;8.60;;;5.23;;
3849;SDS011;1940;51.052;13.678;2023-06-26T04:51:04;9.00;;;5.40;;
3849;SDS011;1940;51.052;13.678;2023-06-26T04:53:29;8.30;;;5.30;;
3849;SDS011;1940;51.052;13.678;2023-06-26T04:55:55;8.63;;;5.30;;
3849;SDS011;1940;51.052;13.678;2023-06-26T04:58:21;7.10;;;5.30;;
3849;SDS011;1940;51.052;13.678;2023-06-26T05:00:46;6.00;;;4.87;;
3849;SDS011;1940;51.052;13.678;2023-06-26T05:03:12;7.20;;;5.80;;
3849;SDS011;1940;51.052;13.678;2023-06-26T05:05:39;6.50;;;5.20;;
3849;SDS011;1940;51.052;13.678;2023-06-26T05:08:17;16.40;;;5.87;;
3849;SDS011;1940;51.052;13.678;2023-06-26T05:10:45;7.87;;;5.43;;
3849;SDS011;1940;51.052;13.678;2023-06-26T05:13:11;13.10;;;5.57;;
3849;SDS011;1940;51.052;13.678;2023-06-26T05:15:39;7.70;;;4.70;;
3849;SDS011;1940;51.052;13.678;2023-06-26T05:18:06;8.40;;;5.60;;
3849;SDS011;1940;51.052;13.678;2023-06-26T05:20:32;10.13;;;5.00;;
3849;SDS011;1940;51.052;13.678;2023-06-26T05:22:57;14.33;;;6.73;;
3849;SDS011;1940;51.052;13.678;2023-06-26T05:25:23;8.60;;;4.70;;
3849;SDS011;1940;51.052;13.678;2023-06-26T05:27:50;7.60;;;5.07;;
3849;SDS011;1940;51.052;13.678;2023-06-26T05:30:16;8.53;;;5.13;;
3849;SDS011;1940;51.052;13.678;2023-06-26T05:32:42;6.57;;;4.63;;
3849;SDS011;1940;51.052;13.678;2023-06-26T05:35:10;6.60;;;4.90;;
3849;SDS011;1940;51.052;13.678;2023-06-26T05:37:36;6.37;;;4.40;;
3849;SDS011;1940;51.052;13.678;2023-06-26T05:40:02;6.93;;;5.00;;
3849;SDS011;1940;51.052;13.678;2023-06-26T05:42:29;8.57;;;5.70;;
3849;SDS011;1940;51.052;13.678;2023-06-26T05:44:55;5.40;;;3.97;;
3849;SDS011;1940;51.052;13.678;2023-06-26T05:47:21;5.50;;;4.40;;
3849;SDS011;1940;51.052;13.678;2023-06-26T05:49:47;10.20;;;5.00;;
3849;SDS011;1940;51.052;13.678;2023-06-26T05:52:12;5.03;;;4.47;;
3849;SDS011;1940;51.052;13.678;2023-06-26T05:54:38;6.43;;;4.83;;
3849;SDS011;1940;51.052;13.678;2023-06-26T05:57:04;7.27;;;4.53;;
3849;SDS011;1940;51.052;13.678;2023-06-26T05:59:33;4.73;;;4.03;;
3849;SDS011;1940;51.052;13.678;2023-06-26T06:02:01;5.60;;;4.40;;
3849;SDS011;1940;51.052;13.678;2023-06-26T06:04:27;6.93;;;4.73;;
3849;SDS011;1940;51.052;13.678;2023-06-26T06:06:53;9.77;;;4.80;;
3849;SDS011;1940;51.052;13.678;2023-06-26T06:09:18;7.07;;;5.07;;
3849;SDS011;1940;51.052;13.678;2023-06-26T06:11:43;4.70;;;4.20;;
3849;SDS011;1940;51.052;13.678;2023-06-26T06:14:09;6.00;;;4.37;;
3849;SDS011;1940;51.052;13.678;2023-06-26T06:16:34;6.80;;;4.50;;
3849;SDS011;1940;51.052;13.678;2023-06-26T06:19:00;5.30;;;4.63;;
3849;SDS011;1940;51.052;13.678;2023-06-26T06:21:27;5.10;;;4.60;;
3849;SDS011;1940;51.052;13.678;2023-06-26T06:23:53;4.83;;;4.33;;
3849;SDS011;1940;51.052;13.678;2023-06-26T06:26:18;5.87;;;4.10;;
3849;SDS011;1940;51.052;13.678;2023-06-26T06:28:44;5.90;;;4.33;;
3849;SDS011;1940;51.052;13.678;2023-06-26T06:31:09;6.03;;;4.70;;
3849;SDS011;1940;51.052;13.678;2023-06-26T06:33:35;9.10;;;4.93;;
3849;SDS011;1940;51.052;13.678;2023-06-26T06:36:00;6.20;;;4.83;;
3849;SDS011;1940;51.052;13.678;2023-06-26T06:38:26;5.13;;;4.03;;
3849;SDS011;1940;51.052;13.678;2023-06-26T06:40:51;7.47;;;4.70;;
3849;SDS011;1940;51.052;13.678;2023-06-26T06:43:17;7.73;;;4.60;;
3849;SDS011;1940;51.052;13.678;2023-06-26T06:45:42;9.40;;;4.53;;
3849;SDS011;1940;51.052;13.678;2023-06-26T06:48:08;4.80;;;3.70;;
3849;SDS011;1940;51.052;13.678;2023-06-26T06:50:33;5.33;;;4.80;;
3849;SDS011;1940;51.052;13.678;2023-06-26T06:52:59;4.93;;;4.20;;
3849;SDS011;1940;51.052;13.678;2023-06-26T06:55:24;6.97;;;4.40;;
3849;SDS011;1940;51.052;13.678;2023-06-26T06:57:50;8.07;;;4.57;;
3849;SDS011;1940;51.052;13.678;2023-06-26T07:00:16;6.67;;;4.07;;
3849;SDS011;1940;51.052;13.678;2023-06-26T07:02:42;5.27;;;4.30;;
3849;SDS011;1940;51.052;13.678;2023-06-26T07:05:09;8.80;;;4.20;;
3849;SDS011;1940;51.052;13.678;2023-06-26T07:07:35;6.07;;;4.00;;
3849;SDS011;1940;51.052;13.678;2023-06-26T07:10:08;6.87;;;4.77;;
3849;SDS011;1940;51.052;13.678;2023-06-26T07:12:35;4.90;;;4.20;;
3849;SDS011;1940;51.052;13.678;2023-06-26T07:15:01;5.47;;;3.90;;
3849;SDS011;1940;51.052;13.678;2023-06-26T07:17:29;5.63;;;4.50;;
3849;SDS011;1940;51.052;13.678;2023-06-26T07:19:55;6.10;;;5.30;;
3849;SDS011;1940;51.052;13.678;2023-06-26T07:22:20;8.17;;;4.87;;
3849;SDS011;1940;51.052;13.678;2023-06-26T07:24:46;5.90;;;4.60;;
3849;SDS011;1940;51.052;13.678;2023-06-26T07:27:15;5.10;;;4.60;;
3849;SDS011;1940;51.052;13.678;2023-06-26T07:29:41;6.53;;;4.70;;
3849;SDS011;1940;51.052;13.678;2023-06-26T07:32:07;5.60;;;4.17;;
3849;SDS011;1940;51.052;13.678;2023-06-26T07:34:32;4.70;;;3.93;;
3849;SDS011;1940;51.052;13.678;2023-06-26T07:36:58;5.13;;;4.50;;
3849;SDS011;1940;51.052;13.678;2023-06-26T07:39:24;4.27;;;3.57;;
3849;SDS011;1940;51.052;13.678;2023-06-26T07:41:49;7.10;;;4.30;;
3849;SDS011;1940;51.052;13.678;2023-06-26T07:44:15;5.33;;;4.50;;
3849;SDS011;1940;51.052;13.678;2023-06-26T07:46:40;8.70;;;4.30;;
3849;SDS011;1940;51.052;13.678;2023-06-26T07:49:06;4.90;;;4.43;;
3849;SDS011;1940;51.052;13.678;2023-06-26T07:51:31;6.33;;;4.37;;
3849;SDS011;1940;51.052;13.678;2023-06-26T07:54:07;4.80;;;3.80;;
3849;SDS011;1940;51.052;13.678;2023-06-26T07:56:52;4.70;;;4.30;;
3849;SDS011;1940;51.052;13.678;2023-06-26T07:59:22;13.93;;;4.53;;
3849;SDS011;1940;51.052;13.678;2023-06-26T08:01:52;5.33;;;4.17;;
3849;SDS011;1940;51.052;13.678;2023-06-26T08:04:19;5.63;;;4.03;;
3849;SDS011;1940;51.052;13.678;2023-06-26T08:06:47;7.33;;;4.47;;
3849;SDS011;1940;51.052;13.678;2023-06-26T08:09:14;5.90;;;3.90;;
3849;SDS011;1940;51.052;13.678;2023-06-26T08:11:40;4.73;;;4.00;;
3849;SDS011;1940;51.052;13.678;2023-06-26T08:14:05;9.03;;;4.60;;
3849;SDS011;1940;51.052;13.678;2023-06-26T08:16:31;4.53;;;4.00;;
3849;SDS011;1940;51.052;13.678;2023-06-26T08:18:56;5.40;;;3.80;;
3849;SDS011;1940;51.052;13.678;2023-06-26T08:21:22;4.00;;;3.60;;
3849;SDS011;1940;51.052;13.678;2023-06-26T08:23:47;4.30;;;3.70;;
3849;SDS011;1940;51.052;13.678;2023-06-26T08:26:13;4.17;;;3.87;;
3849;SDS011;1940;51.052;13.678;2023-06-26T08:28:39;4.30;;;4.00;;
3849;SDS011;1940;51.052;13.678;2023-06-26T08:31:04;3.43;;;3.17;;
3849;SDS011;1940;51.052;13.678;2023-06-26T08:33:30;4.23;;;3.93;;
3849;SDS011;1940;51.052;13.678;2023-06-26T08:35:55;3.87;;;3.57;;
3849;SDS011;1940;51.052;13.678;2023-06-26T08:38:21;3.83;;;3.53;;
3849;SDS011;1940;51.052;13.678;2023-06-26T08:40:46;5.13;;;3.67;;
3849;SDS011;1940;51.052;13.678;2023-06-26T08:43:12;3.87;;;3.57;;
3849;SDS011;1940;51.052;13.678;2023-06-26T08:45:38;4.60;;;4.13;;
3849;SDS011;1940;51.052;13.678;2023-06-26T08:48:03;3.70;;;3.40;;
3849;SDS011;1940;51.052;13.678;2023-06-26T08:50:33;4.27;;;3.83;;
3849;SDS011;1940;51.052;13.678;2023-06-26T08:55:56;4.20;;;3.90;;
3849;SDS011;1940;51.052;13.678;2023-06-26T08:58:23;3.93;;;3.43;;
3849;SDS011;1940;51.052;13.678;2023-06-26T09:00:48;4.30;;;4.00;;
3849;SDS011;1940;51.052;13.678;2023-06-26T09:03:14;4.90;;;3.53;;
3849;SDS011;1940;51.052;13.678;2023-06-26T09:05:40;4.00;;;3.73;;
3849;SDS011;1940;51.052;13.678;2023-06-26T09:08:07;4.03;;;3.70;;
3849;SDS011;1940;51.052;13.678;2023-06-26T09:10:32;4.30;;;3.60;;
3849;SDS011;1940;51.052;13.678;2023-06-26T09:12:58;4.00;;;3.70;;
3849;SDS011;1940;51.052;13.678;2023-06-26T09:15:25;3.73;;;3.43;;
3849;SDS011;1940;51.052;13.678;2023-06-26T09:17:53;4.10;;;3.80;;
3849;SDS011;1940;51.052;13.678;2023-06-26T09:20:21;6.53;;;3.83;;
3849;SDS011;1940;51.052;13.678;2023-06-26T09:22:47;4.10;;;3.80;;
3849;SDS011;1940;51.052;13.678;2023-06-26T09:25:13;3.93;;;3.63;;
3849;SDS011;1940;51.052;13.678;2023-06-26T09:27:39;4.00;;;3.60;;
3849;SDS011;1940;51.052;13.678;2023-06-26T09:30:05;4.70;;;4.00;;
3849;SDS011;1940;51.052;13.678;2023-06-26T09:32:35;3.57;;;3.27;;
3849;SDS011;1940;51.052;13.678;2023-06-26T09:35:01;3.47;;;3.27;;
3849;SDS011;1940;51.052;13.678;2023-06-26T09:37:28;3.40;;;3.20;;
3849;SDS011;1940;51.052;13.678;2023-06-26T09:39:53;3.60;;;3.40;;
3849;SDS011;1940;51.052;13.678;2023-06-26T09:42:19;3.20;;;3.00;;
3849;SDS011;1940;51.052;13.678;2023-06-26T09:44:45;3.10;;;2.90;;
3849;SDS011;1940;51.052;13.678;2023-06-26T09:47:12;3.33;;;3.13;;
3849;SDS011;1940;51.052;13.678;2023-06-26T09:49:41;3.37;;;3.13;;
3849;SDS011;1940;51.052;13.678;2023-06-26T09:52:13;3.10;;;2.90;;
3849;SDS011;1940;51.052;13.678;2023-06-26T09:54:45;3.17;;;2.97;;
3849;SDS011;1940;51.052;13.678;2023-06-26T09:57:17;4.90;;;3.40;;
3849;SDS011;1940;51.052;13.678;2023-06-26T09:59:44;3.70;;;3.37;;
3849;SDS011;1940;51.052;13.678;2023-06-26T10:02:12;3.47;;;3.17;;
3849;SDS011;1940;51.052;13.678;2023-06-26T10:04:38;3.20;;;3.00;;
3849;SDS011;1940;51.052;13.678;2023-06-26T10:07:08;3.10;;;2.90;;
3849;SDS011;1940;51.052;13.678;2023-06-26T10:09:49;3.20;;;3.00;;
3849;SDS011;1940;51.052;13.678;2023-06-26T10:12:18;3.10;;;2.90;;
3849;SDS011;1940;51.052;13.678;2023-06-26T10:14:49;3.33;;;3.13;;
3849;SDS011;1940;51.052;13.678;2023-06-26T10:17:17;3.40;;;3.10;;
3849;SDS011;1940;51.052;13.678;2023-06-26T10:19:47;3.90;;;3.50;;
3849;SDS011;1940;51.052;13.678;2023-06-26T10:22:17;3.40;;;3.10;;
3849;SDS011;1940;51.052;13.678;2023-06-26T10:24:44;3.30;;;3.10;;
3849;SDS011;1940;51.052;13.678;2023-06-26T10:27:18;3.30;;;3.10;;
3849;SDS011;1940;51.052;13.678;2023-06-26T10:29:46;4.37;;;2.80;;
3849;SDS011;1940;51.052;13.678;2023-06-26T10:32:15;3.40;;;3.10;;
3849;SDS011;1940;51.052;13.678;2023-06-26T10:34:42;4.00;;;3.70;;
3849;SDS011;1940;51.052;13.678;2023-06-26T10:37:08;3.20;;;3.00;;
3849;SDS011;1940;51.052;13.678;2023-06-26T10:39:49;3.40;;;3.20;;
3849;SDS011;1940;51.052;13.678;2023-06-26T10:42:17;3.87;;;3.57;;
3849;SDS011;1940;51.052;13.678;2023-06-26T10:44:44;3.63;;;3.33;;
3849;SDS011;1940;51.052;13.678;2023-06-26T10:47:12;3.97;;;3.57;;
3849;SDS011;1940;51.052;13.678;2023-06-26T10:49:57;3.43;;;3.13;;
3849;SDS011;1940;51.052;13.678;2023-06-26T10:52:41;4.23;;;3.83;;
3849;SDS011;1940;51.052;13.678;2023-06-26T10:55:08;3.70;;;3.40;;
3849;SDS011;1940;51.052;13.678;2023-06-26T10:57:33;3.67;;;3.40;;
3849;SDS011;1940;51.052;13.678;2023-06-26T11:00:14;5.20;;;4.00;;
3849;SDS011;1940;51.052;13.678;2023-06-26T11:02:50;3.77;;;3.40;;
3849;SDS011;1940;51.052;13.678;2023-06-26T11:08:04;3.30;;;3.10;;
3849;SDS011;1940;51.052;13.678;2023-06-26T11:10:51;4.00;;;3.70;;
3849;SDS011;1940;51.052;13.678;2023-06-26T11:13:18;3.70;;;3.40;;
3849;SDS011;1940;51.052;13.678;2023-06-26T11:15:45;4.10;;;3.70;;
3849;SDS011;1940;51.052;13.678;2023-06-26T11:18:11;4.70;;;3.70;;
3849;SDS011;1940;51.052;13.678;2023-06-26T11:20:37;5.73;;;4.17;;
3849;SDS011;1940;51.052;13.678;2023-06-26T11:23:07;5.03;;;4.00;;
3849;SDS011;1940;51.052;13.678;2023-06-26T11:25:35;4.53;;;4.13;;
3849;SDS011;1940;51.052;13.678;2023-06-26T11:28:02;4.63;;;4.20;;
3849;SDS011;1940;51.052;13.678;2023-06-26T11:30:28;5.93;;;3.90;;
3849;SDS011;1940;51.052;13.678;2023-06-26T11:33:02;5.43;;;4.20;;
3849;SDS011;1940;51.052;13.678;2023-06-26T11:35:28;6.00;;;4.23;;
3849;SDS011;1940;51.052;13.678;2023-06-26T11:37:55;4.80;;;4.30;;
3849;SDS011;1940;51.052;13.678;2023-06-26T11:40:22;5.03;;;4.50;;
3849;SDS011;1940;51.052;13.678;2023-06-26T11:42:52;5.63;;;4.37;;
3849;SDS011;1940;51.052;13.678;2023-06-26T11:45:19;4.90;;;4.40;;
3849;SDS011;1940;51.052;13.678;2023-06-26T11:47:44;4.60;;;4.03;;
3849;SDS011;1940;51.052;13.678;2023-06-26T11:50:14;4.60;;;4.20;;
3849;SDS011;1940;51.052;13.678;2023-06-26T11:52:41;5.00;;;4.50;;
3849;SDS011;1940;51.052;13.678;2023-06-26T11:55:09;4.33;;;3.93;;
3849;SDS011;1940;51.052;13.678;2023-06-26T11:57:35;4.87;;;4.37;;
3849;SDS011;1940;51.052;13.678;2023-06-26T12:00:13;4.70;;;4.30;;
3849;SDS011;1940;51.052;13.678;2023-06-26T12:02:41;6.00;;;4.30;;
3849;SDS011;1940;51.052;13.678;2023-06-26T12:05:07;5.10;;;4.50;;
3849;SDS011;1940;51.052;13.678;2023-06-26T12:07:33;4.80;;;4.13;;
3849;SDS011;1940;51.052;13.678;2023-06-26T12:09:59;5.40;;;4.40;;
3849;SDS011;1940;51.052;13.678;2023-06-26T12:12:26;4.20;;;3.80;;
3849;SDS011;1940;51.052;13.678;2023-06-26T12:14:51;4.50;;;4.10;;
3849;SDS011;1940;51.052;13.678;2023-06-26T12:17:17;9.50;;;4.40;;
3849;SDS011;1940;51.052;13.678;2023-06-26T12:19:48;8.50;;;4.70;;
3849;SDS011;1940;51.052;13.678;2023-06-26T12:22:14;5.20;;;4.57;;
3849;SDS011;1940;51.052;13.678;2023-06-26T12:24:41;4.83;;;4.33;;
3849;SDS011;1940;51.052;13.678;2023-06-26T12:27:12;8.03;;;4.60;;
3849;SDS011;1940;51.052;13.678;2023-06-26T12:29:40;4.67;;;4.20;;
3849;SDS011;1940;51.052;13.678;2023-06-26T12:32:11;7.00;;;5.37;;
3849;SDS011;1940;51.052;13.678;2023-06-26T12:34:38;7.20;;;4.90;;
3849;SDS011;1940;51.052;13.678;2023-06-26T12:37:05;8.87;;;4.40;;
3849;SDS011;1940;51.052;13.678;2023-06-26T12:39:53;6.87;;;4.30;;
3849;SDS011;1940;51.052;13.678;2023-06-26T12:42:21;5.33;;;4.50;;
3849;SDS011;1940;51.052;13.678;2023-06-26T12:44:48;6.90;;;4.50;;
3849;SDS011;1940;51.052;13.678;2023-06-26T12:47:15;4.80;;;4.30;;
3849;SDS011;1940;51.052;13.678;2023-06-26T12:49:41;5.27;;;4.40;;
3849;SDS011;1940;51.052;13.678;2023-06-26T12:52:14;4.87;;;4.37;;
3849;SDS011;1940;51.052;13.678;2023-06-26T12:54:41;5.30;;;4.80;;
3849;SDS011;1940;51.052;13.678;2023-06-26T12:57:08;5.47;;;4.10;;
3849;SDS011;1940;51.052;13.678;2023-06-26T12:59:35;8.60;;;4.20;;
3849;SDS011;1940;51.052;13.678;2023-06-26T13:02:02;4.87;;;4.37;;
3849;SDS011;1940;51.052;13.678;2023-06-26T13:04:28;4.73;;;4.17;;
3849;SDS011;1940;51.052;13.678;2023-06-26T13:06:53;5.47;;;4.00;;
3849;SDS011;1940;51.052;13.678;2023-06-26T13:09:19;4.13;;;3.73;;
3849;SDS011;1940;51.052;13.678;2023-06-26T13:11:45;9.00;;;4.40;;
3849;SDS011;1940;51.052;13.678;2023-06-26T13:14:11;5.20;;;3.90;;
3849;SDS011;1940;51.052;13.678;2023-06-26T13:16:36;5.30;;;4.80;;
3849;SDS011;1940;51.052;13.678;2023-06-26T13:19:02;6.13;;;4.20;;
3849;SDS011;1940;51.052;13.678;2023-06-26T13:21:28;5.10;;;4.07;;
3849;SDS011;1940;51.052;13.678;2023-06-26T13:23:54;6.27;;;4.30;;
3849;SDS011;1940;51.052;13.678;2023-06-26T13:26:20;7.17;;;4.37;;
3849;SDS011;1940;51.052;13.678;2023-06-26T13:28:46;4.50;;;4.10;;
3849;SDS011;1940;51.052;13.678;2023-06-26T13:31:13;5.87;;;4.23;;
3849;SDS011;1940;51.052;13.678;2023-06-26T13:33:38;4.87;;;4.23;;
3849;SDS011;1940;51.052;13.678;2023-06-26T13:36:04;6.37;;;4.27;;
3849;SDS011;1940;51.052;13.678;2023-06-26T13:38:32;5.27;;;4.77;;
3849;SDS011;1940;51.052;13.678;2023-06-26T13:40:58;4.50;;;4.10;;
3849;SDS011;1940;51.052;13.678;2023-06-26T13:43:25;5.87;;;4.70;;
3849;SDS011;1940;51.052;13.678;2023-06-26T13:45:52;5.10;;;4.37;;
3849;SDS011;1940;51.052;13.678;2023-06-26T13:48:18;4.33;;;3.93;;
3849;SDS011;1940;51.052;13.678;2023-06-26T13:50:44;4.70;;;4.17;;
3849;SDS011;1940;51.052;13.678;2023-06-26T13:53:10;4.40;;;4.00;;
3849;SDS011;1940;51.052;13.678;2023-06-26T13:55:35;6.17;;;4.70;;
3849;SDS011;1940;51.052;13.678;2023-06-26T13:58:02;4.70;;;4.20;;
3849;SDS011;1940;51.052;13.678;2023-06-26T14:00:30;5.23;;;4.47;;
3849;SDS011;1940;51.052;13.678;2023-06-26T14:03:02;5.40;;;4.70;;
3849;SDS011;1940;51.052;13.678;2023-06-26T14:05:29;5.33;;;4.53;;
3849;SDS011;1940;51.052;13.678;2023-06-26T14:07:57;9.43;;;4.40;;
3849;SDS011;1940;51.052;13.678;2023-06-26T14:10:23;4.90;;;4.40;;
3849;SDS011;1940;51.052;13.678;2023-06-26T14:12:49;6.53;;;4.90;;
3849;SDS011;1940;51.052;13.678;2023-06-26T14:15:15;5.00;;;4.50;;
3849;SDS011;1940;51.052;13.678;2023-06-26T14:17:41;7.10;;;4.90;;
3849;SDS011;1940;51.052;13.678;2023-06-26T14:20:09;6.23;;;4.60;;
3849;SDS011;1940;51.052;13.678;2023-06-26T14:22:38;4.90;;;4.40;;
3849;SDS011;1940;51.052;13.678;2023-06-26T14:25:05;8.37;;;4.70;;
3849;SDS011;1940;51.052;13.678;2023-06-26T14:27:35;8.73;;;4.47;;
3849;SDS011;1940;51.052;13.678;2023-06-26T14:30:01;5.10;;;4.50;;
3849;SDS011;1940;51.052;13.678;2023-06-26T14:32:27;5.23;;;4.73;;
3849;SDS011;1940;51.052;13.678;2023-06-26T14:34:53;6.00;;;5.20;;
3849;SDS011;1940;51.052;13.678;2023-06-26T14:37:19;6.13;;;5.13;;
3849;SDS011;1940;51.052;13.678;2023-06-26T14:39:45;6.30;;;5.07;;
3849;SDS011;1940;51.052;13.678;2023-06-26T14:42:10;6.30;;;5.10;;
3849;SDS011;1940;51.052;13.678;2023-06-26T14:44:36;5.70;;;5.10;;
3849;SDS011;1940;51.052;13.678;2023-06-26T14:47:02;7.20;;;4.97;;
3849;SDS011;1940;51.052;13.678;2023-06-26T14:49:27;8.30;;;5.00;;
3849;SDS011;1940;51.052;13.678;2023-06-26T14:51:53;10.03;;;5.30;;
3849;SDS011;1940;51.052;13.678;2023-06-26T14:54:19;4.83;;;4.43;;
3849;SDS011;1940;51.052;13.678;2023-06-26T14:56:44;7.50;;;5.70;;
3849;SDS011;1940;51.052;13.678;2023-06-26T14:59:10;6.60;;;5.03;;
3849;SDS011;1940;51.052;13.678;2023-06-26T15:01:36;5.70;;;4.83;;
3849;SDS011;1940;51.052;13.678;2023-06-26T15:04:02;10.73;;;5.30;;
3849;SDS011;1940;51.052;13.678;2023-06-26T15:06:27;5.93;;;4.80;;